sensor_id;sensor_type;location;lat;lon;timestamp;pressure;altitude;pressure_sealevel;temperature;humidity
14612;BME280;7392;52.078;11.650;2023-05-03T00:01:32;102049.09;;;7.60;72.89
14612;BME280;7392;52.078;11.650;2023-05-03T00:04:01;102048.97;;;7.55;73.10
14612;BME280;7392;52.078;11.650;2023-05-03T00:06:29;102045.34;;;7.52;72.51
14612;BME280;7392;52.078;11.650;2023-05-03T00:08:57;102052.28;;;7.49;73.18
14612;BME280;7392;52.078;11.650;2023-05-03T00:11:26;102047.88;;;7.48;73.43
14612;BME280;7392;52.078;11.650;2023-05-03T00:13:54;102048.66;;;7.46;73.48
14612;BME280;7392;52.078;11.650;2023-05-03T00:16:21;102041.56;;;7.43;73.72
14612;BME280;7392;52.078;11.650;2023-05-03T00:18:49;102045.91;;;7.41;74.37
14612;BME280;7392;52.078;11.650;2023-05-03T00:21:17;102051.13;;;7.40;74.71
14612;BME280;7392;52.078;11.650;2023-05-03T00:23:45;102053.72;;;7.38;75.24
14612;BME280;7392;52.078;11.650;2023-05-03T00:26:13;102046.59;;;7.36;75.30
14612;BME280;7392;52.078;11.650;2023-05-03T00:28:42;102056.22;;;7.34;76.26
14612;BME280;7392;52.078;11.650;2023-05-03T00:31:10;102049.94;;;7.30;76.37
14612;BME280;7392;52.078;11.650;2023-05-03T00:33:38;102060.41;;;7.27;76.85
14612;BME280;7392;52.078;11.650;2023-05-03T00:36:07;102050.53;;;7.21;76.74
14612;BME280;7392;52.078;11.650;2023-05-03T00:38:35;102049.59;;;7.19;77.32
14612;BME280;7392;52.078;11.650;2023-05-03T00:41:03;102045.91;;;7.14;78.01
14612;BME280;7392;52.078;11.650;2023-05-03T00:43:33;102047.50;;;7.09;78.22
14612;BME280;7392;52.078;11.650;2023-05-03T00:46:06;102050.88;;;7.05;78.59
14612;BME280;7392;52.078;11.650;2023-05-03T00:48:43;102048.94;;;6.99;78.39
14612;BME280;7392;52.078;11.650;2023-05-03T00:51:12;102054.06;;;6.95;78.67
14612;BME280;7392;52.078;11.650;2023-05-03T00:53:41;102045.94;;;6.88;78.76
14612;BME280;7392;52.078;11.650;2023-05-03T00:56:09;102044.78;;;6.80;78.99
14612;BME280;7392;52.078;11.650;2023-05-03T00:58:37;102059.59;;;6.75;79.21
14612;BME280;7392;52.078;11.650;2023-05-03T01:01:08;102049.69;;;6.69;79.78
14612;BME280;7392;52.078;11.650;2023-05-03T01:03:36;102045.97;;;6.63;79.91
14612;BME280;7392;52.078;11.650;2023-05-03T01:06:14;102044.84;;;6.56;79.67
14612;BME280;7392;52.078;11.650;2023-05-03T01:08:48;102045.44;;;6.49;80.07
14612;BME280;7392;52.078;11.650;2023-05-03T01:11:21;102050.53;;;6.43;80.73
14612;BME280;7392;52.078;11.650;2023-05-03T01:13:54;102046.78;;;6.36;81.04
14612;BME280;7392;52.078;11.650;2023-05-03T01:16:28;102036.84;;;6.29;81.14
14612;BME280;7392;52.078;11.650;2023-05-03T01:18:59;102043.66;;;6.22;81.08
14612;BME280;7392;52.078;11.650;2023-05-03T01:21:32;102046.78;;;6.12;81.58
14612;BME280;7392;52.078;11.650;2023-05-03T01:24:06;102043.97;;;6.07;81.63
14612;BME280;7392;52.078;11.650;2023-05-03T01:26:36;102036.69;;;6.00;82.27
14612;BME280;7392;52.078;11.650;2023-05-03T01:29:04;102046.97;;;5.94;81.92
14612;BME280;7392;52.078;11.650;2023-05-03T01:31:36;102051.97;;;5.86;81.97
14612;BME280;7392;52.078;11.650;2023-05-03T01:34:20;102054.41;;;5.81;82.59
14612;BME280;7392;52.078;11.650;2023-05-03T01:36:52;102055.91;;;5.75;82.49
14612;BME280;7392;52.078;11.650;2023-05-03T01:39:23;102055.63;;;5.67;82.53
14612;BME280;7392;52.078;11.650;2023-05-03T01:41:54;102059.84;;;5.62;82.75
14612;BME280;7392;52.078;11.650;2023-05-03T01:44:23;102057.00;;;5.57;83.44
14612;BME280;7392;52.078;11.650;2023-05-03T01:46:52;102054.97;;;5.50;83.46
14612;BME280;7392;52.078;11.650;2023-05-03T01:49:20;102065.34;;;5.46;83.42
14612;BME280;7392;52.078;11.650;2023-05-03T01:51:47;102064.25;;;5.40;83.62
14612;BME280;7392;52.078;11.650;2023-05-03T01:54:16;102056.94;;;5.33;83.69
14612;BME280;7392;52.078;11.650;2023-05-03T01:56:44;102059.38;;;5.29;83.88
14612;BME280;7392;52.078;11.650;2023-05-03T01:59:15;102067.09;;;5.24;84.24
14612;BME280;7392;52.078;11.650;2023-05-03T02:01:43;102060.75;;;5.19;84.18
14612;BME280;7392;52.078;11.650;2023-05-03T02:04:10;102063.97;;;5.12;84.61
14612;BME280;7392;52.078;11.650;2023-05-03T02:06:38;102072.66;;;5.09;85.07
14612;BME280;7392;52.078;11.650;2023-05-03T02:09:06;102073.28;;;5.03;84.67
14612;BME280;7392;52.078;11.650;2023-05-03T02:11:34;102075.75;;;4.99;84.71
14612;BME280;7392;52.078;11.650;2023-05-03T02:14:02;102067.56;;;4.93;85.21
14612;BME280;7392;52.078;11.650;2023-05-03T02:16:32;102067.44;;;4.90;85.49
14612;BME280;7392;52.078;11.650;2023-05-03T02:19:00;102063.78;;;4.86;85.63
14612;BME280;7392;52.078;11.650;2023-05-03T02:21:28;102076.75;;;4.81;85.76
14612;BME280;7392;52.078;11.650;2023-05-03T02:23:57;102075.72;;;4.78;86.18
14612;BME280;7392;52.078;11.650;2023-05-03T02:26:25;102067.66;;;4.73;86.07
14612;BME280;7392;52.078;11.650;2023-05-03T02:28:53;102073.59;;;4.69;86.50
14612;BME280;7392;52.078;11.650;2023-05-03T02:31:21;102072.56;;;4.65;86.37
14612;BME280;7392;52.078;11.650;2023-05-03T02:33:50;102069.72;;;4.61;86.62
14612;BME280;7392;52.078;11.650;2023-05-03T02:36:21;102073.00;;;4.55;86.16
14612;BME280;7392;52.078;11.650;2023-05-03T02:38:49;102075.44;;;4.50;86.82
14612;BME280;7392;52.078;11.650;2023-05-03T02:41:17;102076.06;;;4.45;87.09
14612;BME280;7392;52.078;11.650;2023-05-03T02:43:45;102078.56;;;4.42;87.05
14612;BME280;7392;52.078;11.650;2023-05-03T02:46:13;102081.91;;;4.38;87.51
14612;BME280;7392;52.078;11.650;2023-05-03T02:48:41;102076.41;;;4.33;87.21
14612;BME280;7392;52.078;11.650;2023-05-03T02:51:11;102077.06;;;4.27;87.84
14612;BME280;7392;52.078;11.650;2023-05-03T02:53:39;102069.03;;;4.24;88.12
14612;BME280;7392;52.078;11.650;2023-05-03T02:56:07;102085.53;;;4.22;88.25
14612;BME280;7392;52.078;11.650;2023-05-03T02:58:35;102078.38;;;4.18;88.92
14612;BME280;7392;52.078;11.650;2023-05-03T03:01:04;102088.81;;;4.16;88.73
14612;BME280;7392;52.078;11.650;2023-05-03T03:03:32;102081.63;;;4.12;88.39
14612;BME280;7392;52.078;11.650;2023-05-03T03:06:00;102085.84;;;4.08;88.52
14612;BME280;7392;52.078;11.650;2023-05-03T03:08:29;102088.34;;;4.05;88.83
14612;BME280;7392;52.078;11.650;2023-05-03T03:11:01;102094.34;;;4.03;88.82
14612;BME280;7392;52.078;11.650;2023-05-03T03:13:29;102097.75;;;4.00;89.26
14612;BME280;7392;52.078;11.650;2023-05-03T03:15:58;102096.78;;;3.98;89.53
14612;BME280;7392;52.078;11.650;2023-05-03T03:18:29;102099.25;;;3.95;88.94
14612;BME280;7392;52.078;11.650;2023-05-03T03:20:57;102092.88;;;3.90;88.77
14612;BME280;7392;52.078;11.650;2023-05-03T03:23:25;102095.44;;;3.88;89.05
14612;BME280;7392;52.078;11.650;2023-05-03T03:25:55;102101.44;;;3.86;89.54
14612;BME280;7392;52.078;11.650;2023-05-03T03:28:24;102100.41;;;3.82;90.13
14612;BME280;7392;52.078;11.650;2023-05-03T03:30:55;102108.22;;;3.81;90.27
14612;BME280;7392;52.078;11.650;2023-05-03T03:33:23;102107.25;;;3.79;90.63
14612;BME280;7392;52.078;11.650;2023-05-03T03:35:58;102101.09;;;3.78;90.59
14612;BME280;7392;52.078;11.650;2023-05-03T03:38:30;102098.47;;;3.78;90.87
14612;BME280;7392;52.078;11.650;2023-05-03T03:41:04;102103.56;;;3.75;90.46
14612;BME280;7392;52.078;11.650;2023-05-03T03:43:33;102114.00;;;3.73;90.72
14612;BME280;7392;52.078;11.650;2023-05-03T03:46:05;102104.19;;;3.69;91.13
14612;BME280;7392;52.078;11.650;2023-05-03T03:48:33;102107.63;;;3.68;91.08
14612;BME280;7392;52.078;11.650;2023-05-03T03:51:01;102104.94;;;3.67;91.20
14612;BME280;7392;52.078;11.650;2023-05-03T03:53:35;102110.97;;;3.64;91.93
14612;BME280;7392;52.078;11.650;2023-05-03T03:56:06;102110.00;;;3.62;91.15
14612;BME280;7392;52.078;11.650;2023-05-03T03:58:34;102115.19;;;3.61;91.76
14612;BME280;7392;52.078;11.650;2023-05-03T04:01:05;102115.91;;;3.58;91.65
14612;BME280;7392;52.078;11.650;2023-05-03T04:03:33;102115.03;;;3.58;92.08
14612;BME280;7392;52.078;11.650;2023-05-03T04:06:02;102116.75;;;3.57;92.65
14612;BME280;7392;52.078;11.650;2023-05-03T04:08:31;102115.75;;;3.55;92.53
14612;BME280;7392;52.078;11.650;2023-05-03T04:11:00;102121.84;;;3.54;92.78
14612;BME280;7392;52.078;11.650;2023-05-03T04:13:34;102115.69;;;3.53;93.32
14612;BME280;7392;52.078;11.650;2023-05-03T04:16:03;102124.41;;;3.52;93.07
14612;BME280;7392;52.078;11.650;2023-05-03T04:18:33;102126.97;;;3.51;93.35
14612;BME280;7392;52.078;11.650;2023-05-03T04:21:06;102133.94;;;3.50;93.52
14612;BME280;7392;52.078;11.650;2023-05-03T04:23:34;102137.47;;;3.51;93.48
14612;BME280;7392;52.078;11.650;2023-05-03T04:26:04;102139.13;;;3.49;93.39
14612;BME280;7392;52.078;11.650;2023-05-03T04:28:44;102134.69;;;3.48;93.82
14612;BME280;7392;52.078;11.650;2023-05-03T04:31:15;102145.19;;;3.48;93.85
14612;BME280;7392;52.078;11.650;2023-05-03T04:33:44;102151.28;;;3.47;94.09
14612;BME280;7392;52.078;11.650;2023-05-03T04:36:12;102155.69;;;3.48;94.63
14612;BME280;7392;52.078;11.650;2023-05-03T04:38:44;102160.16;;;3.49;95.34
14612;BME280;7392;52.078;11.650;2023-05-03T04:41:13;102168.19;;;3.52;95.66
14612;BME280;7392;52.078;11.650;2023-05-03T04:43:43;102167.25;;;3.51;95.13
14612;BME280;7392;52.078;11.650;2023-05-03T04:46:11;102164.78;;;3.54;94.95
14612;BME280;7392;52.078;11.650;2023-05-03T04:48:39;102165.75;;;3.56;95.97
14612;BME280;7392;52.078;11.650;2023-05-03T04:51:08;102167.56;;;3.58;96.24
14612;BME280;7392;52.078;11.650;2023-05-03T04:53:36;102172.06;;;3.60;95.79
14612;BME280;7392;52.078;11.650;2023-05-03T04:56:09;102167.84;;;3.64;96.29
14612;BME280;7392;52.078;11.650;2023-05-03T04:58:38;102170.63;;;3.67;96.27
14612;BME280;7392;52.078;11.650;2023-05-03T05:01:08;102166.34;;;3.69;95.89
14612;BME280;7392;52.078;11.650;2023-05-03T05:03:37;102171.69;;;3.70;95.90
14612;BME280;7392;52.078;11.650;2023-05-03T05:06:10;102166.50;;;3.72;95.94
14612;BME280;7392;52.078;11.650;2023-05-03T05:08:40;102164.03;;;3.75;96.31
14612;BME280;7392;52.078;11.650;2023-05-03T05:11:12;102174.69;;;3.78;96.34
14612;BME280;7392;52.078;11.650;2023-05-03T05:13:41;102165.22;;;3.82;96.11
14612;BME280;7392;52.078;11.650;2023-05-03T05:16:12;102176.88;;;3.87;96.63
14612;BME280;7392;52.078;11.650;2023-05-03T05:18:46;102179.72;;;3.91;96.32
14612;BME280;7392;52.078;11.650;2023-05-03T05:21:16;102174.63;;;3.95;96.43
14612;BME280;7392;52.078;11.650;2023-05-03T05:23:44;102180.16;;;4.01;96.51
14612;BME280;7392;52.078;11.650;2023-05-03T05:26:12;102180.28;;;4.04;96.29
14612;BME280;7392;52.078;11.650;2023-05-03T05:28:41;102184.88;;;4.08;96.24
14612;BME280;7392;52.078;11.650;2023-05-03T05:31:09;102186.06;;;4.15;96.06
14612;BME280;7392;52.078;11.650;2023-05-03T05:33:39;102187.25;;;4.21;96.22
14612;BME280;7392;52.078;11.650;2023-05-03T05:36:07;102192.81;;;4.27;96.01
14612;BME280;7392;52.078;11.650;2023-05-03T05:38:35;102182.53;;;4.34;95.46
14612;BME280;7392;52.078;11.650;2023-05-03T05:41:03;102195.19;;;4.41;96.34
14612;BME280;7392;52.078;11.650;2023-05-03T05:43:32;102197.09;;;4.45;95.43
14612;BME280;7392;52.078;11.650;2023-05-03T05:45:59;102186.88;;;4.51;95.55
14612;BME280;7392;52.078;11.650;2023-05-03T05:48:28;102188.16;;;4.61;95.61
14612;BME280;7392;52.078;11.650;2023-05-03T05:50:58;102185.00;;;4.68;95.62
14612;BME280;7392;52.078;11.650;2023-05-03T05:53:26;102188.78;;;4.75;95.64
14612;BME280;7392;52.078;11.650;2023-05-03T05:55:58;102191.84;;;4.84;95.41
14612;BME280;7392;52.078;11.650;2023-05-03T05:58:29;102201.88;;;4.93;95.32
14612;BME280;7392;52.078;11.650;2023-05-03T06:00:58;102194.25;;;4.99;95.03
14612;BME280;7392;52.078;11.650;2023-05-03T06:03:28;102199.91;;;5.08;95.42
14612;BME280;7392;52.078;11.650;2023-05-03T06:06:00;102197.59;;;5.16;95.40
14612;BME280;7392;52.078;11.650;2023-05-03T06:08:28;102206.78;;;5.25;95.15
14612;BME280;7392;52.078;11.650;2023-05-03T06:10:56;102200.94;;;5.33;94.29
14612;BME280;7392;52.078;11.650;2023-05-03T06:13:26;102198.59;;;5.39;94.15
14612;BME280;7392;52.078;11.650;2023-05-03T06:15:55;102204.19;;;5.47;93.37
14612;BME280;7392;52.078;11.650;2023-05-03T06:18:23;102208.81;;;5.52;93.02
14612;BME280;7392;52.078;11.650;2023-05-03T06:20:51;102207.31;;;5.59;92.44
14612;BME280;7392;52.078;11.650;2023-05-03T06:23:21;102209.31;;;5.65;92.21
14612;BME280;7392;52.078;11.650;2023-05-03T06:25:50;102207.75;;;5.70;91.66
14612;BME280;7392;52.078;11.650;2023-05-03T06:28:18;102208.03;;;5.76;91.47
14612;BME280;7392;52.078;11.650;2023-05-03T06:30:48;102203.91;;;5.83;90.51
14612;BME280;7392;52.078;11.650;2023-05-03T06:33:16;102214.69;;;5.89;90.13
14612;BME280;7392;52.078;11.650;2023-05-03T06:35:47;102207.03;;;5.95;89.29
14612;BME280;7392;52.078;11.650;2023-05-03T06:38:16;102211.66;;;6.01;89.20
14612;BME280;7392;52.078;11.650;2023-05-03T06:40:46;102212.88;;;6.09;89.04
14612;BME280;7392;52.078;11.650;2023-05-03T06:43:15;102208.75;;;6.15;88.77
14612;BME280;7392;52.078;11.650;2023-05-03T06:45:50;102209.88;;;6.22;88.23
14612;BME280;7392;52.078;11.650;2023-05-03T06:48:18;102210.16;;;6.30;88.28
14612;BME280;7392;52.078;11.650;2023-05-03T06:50:47;102211.38;;;6.38;88.42
14612;BME280;7392;52.078;11.650;2023-05-03T06:53:15;102214.19;;;6.43;87.93
14612;BME280;7392;52.078;11.650;2023-05-03T06:55:43;102214.47;;;6.50;87.50
14612;BME280;7392;52.078;11.650;2023-05-03T06:58:12;102216.34;;;6.53;87.09
14612;BME280;7392;52.078;11.650;2023-05-03T07:00:41;102220.94;;;6.59;87.12
14612;BME280;7392;52.078;11.650;2023-05-03T07:03:09;102209.81;;;6.67;86.86
14612;BME280;7392;52.078;11.650;2023-05-03T07:05:36;102208.25;;;6.72;85.74
14612;BME280;7392;52.078;11.650;2023-05-03T07:08:04;102195.34;;;6.80;85.38
14612;BME280;7392;52.078;11.650;2023-05-03T07:10:32;102201.81;;;6.90;85.35
14612;BME280;7392;52.078;11.650;2023-05-03T07:13:00;102214.50;;;7.00;85.00
14612;BME280;7392;52.078;11.650;2023-05-03T07:15:30;102211.47;;;7.14;83.79
14612;BME280;7392;52.078;11.650;2023-05-03T07:17:57;102204.94;;;7.28;83.16
14612;BME280;7392;52.078;11.650;2023-05-03T07:20:25;102201.13;;;7.45;83.24
14612;BME280;7392;52.078;11.650;2023-05-03T07:22:53;102198.88;;;7.58;83.31
14612;BME280;7392;52.078;11.650;2023-05-03T07:25:21;102212.44;;;7.67;82.93
14612;BME280;7392;52.078;11.650;2023-05-03T07:27:49;102210.00;;;7.75;82.33
14612;BME280;7392;52.078;11.650;2023-05-03T07:30:17;102206.03;;;7.88;81.37
14612;BME280;7392;52.078;11.650;2023-05-03T07:32:46;102204.56;;;7.97;80.21
14612;BME280;7392;52.078;11.650;2023-05-03T07:35:14;102214.50;;;8.04;80.17
14612;BME280;7392;52.078;11.650;2023-05-03T07:37:42;102204.97;;;8.10;79.15
14612;BME280;7392;52.078;11.650;2023-05-03T07:40:10;102205.28;;;8.20;78.88
14612;BME280;7392;52.078;11.650;2023-05-03T07:42:38;102200.31;;;8.31;78.49
14612;BME280;7392;52.078;11.650;2023-05-03T07:45:07;102199.19;;;8.52;78.57
14612;BME280;7392;52.078;11.650;2023-05-03T07:47:35;102196.94;;;8.66;78.38
14612;BME280;7392;52.078;11.650;2023-05-03T07:50:07;102195.41;;;8.74;76.68
14612;BME280;7392;52.078;11.650;2023-05-03T07:52:35;102200.09;;;8.84;77.14
14612;BME280;7392;52.078;11.650;2023-05-03T07:55:04;102203.03;;;8.95;77.03
14612;BME280;7392;52.078;11.650;2023-05-03T07:57:32;102197.13;;;9.04;76.58
14612;BME280;7392;52.078;11.650;2023-05-03T08:00:00;102192.94;;;9.13;75.42
14612;BME280;7392;52.078;11.650;2023-05-03T08:02:37;102190.56;;;9.23;74.54
14612;BME280;7392;52.078;11.650;2023-05-03T08:05:08;102194.44;;;9.37;74.75
14612;BME280;7392;52.078;11.650;2023-05-03T08:07:37;102192.06;;;9.46;73.81
14612;BME280;7392;52.078;11.650;2023-05-03T08:10:05;102192.25;;;9.55;73.37
14612;BME280;7392;52.078;11.650;2023-05-03T08:12:34;102193.44;;;9.67;72.78
14612;BME280;7392;52.078;11.650;2023-05-03T08:15:02;102195.59;;;9.83;73.45
14612;BME280;7392;52.078;11.650;2023-05-03T08:17:38;102192.56;;;10.06;70.45
14612;BME280;7392;52.078;11.650;2023-05-03T08:20:09;102195.88;;;10.34;69.58
14612;BME280;7392;52.078;11.650;2023-05-03T08:22:37;102198.75;;;10.44;67.82
14612;BME280;7392;52.078;11.650;2023-05-03T08:25:07;102197.09;;;10.50;68.14
14612;BME280;7392;52.078;11.650;2023-05-03T08:27:35;102203.44;;;10.56;68.13
14612;BME280;7392;52.078;11.650;2023-05-03T08:30:04;102199.13;;;10.61;67.52
14612;BME280;7392;52.078;11.650;2023-05-03T08:32:33;102199.25;;;10.68;67.51
14612;BME280;7392;52.078;11.650;2023-05-03T08:35:01;102199.47;;;10.78;67.99
14612;BME280;7392;52.078;11.650;2023-05-03T08:37:38;102193.47;;;10.89;67.10
14612;BME280;7392;52.078;11.650;2023-05-03T08:40:07;102195.59;;;11.08;66.67
14612;BME280;7392;52.078;11.650;2023-05-03T08:42:38;102198.97;;;11.48;67.01
14612;BME280;7392;52.078;11.650;2023-05-03T08:45:09;102184.41;;;11.81;65.91
14612;BME280;7392;52.078;11.650;2023-05-03T08:47:38;102184.94;;;12.13;65.16
14612;BME280;7392;52.078;11.650;2023-05-03T08:50:08;102193.19;;;12.32;64.43
14612;BME280;7392;52.078;11.650;2023-05-03T08:52:38;102185.25;;;12.38;63.58
14612;BME280;7392;52.078;11.650;2023-05-03T08:55:07;102190.81;;;12.55;63.20
14612;BME280;7392;52.078;11.650;2023-05-03T08:57:35;102195.38;;;12.67;63.29
14612;BME280;7392;52.078;11.650;2023-05-03T09:00:04;102198.97;;;12.70;62.83
14612;BME280;7392;52.078;11.650;2023-05-03T09:02:36;102197.22;;;12.69;61.56
14612;BME280;7392;52.078;11.650;2023-05-03T09:05:30;102200.78;;;12.71;62.01
14612;BME280;7392;52.078;11.650;2023-05-03T09:08:03;102197.09;;;12.60;59.75
14612;BME280;7392;52.078;11.650;2023-05-03T09:10:32;102194.50;;;12.66;61.51
14612;BME280;7392;52.078;11.650;2023-05-03T09:13:01;102195.72;;;12.96;61.50
14612;BME280;7392;52.078;11.650;2023-05-03T09:15:29;102192.41;;;13.19;58.88
14612;BME280;7392;52.078;11.650;2023-05-03T09:18:11;102202.50;;;13.49;59.78
14612;BME280;7392;52.078;11.650;2023-05-03T09:20:40;102204.47;;;13.75;60.57
14612;BME280;7392;52.078;11.650;2023-05-03T09:23:12;102200.88;;;13.67;58.03
14612;BME280;7392;52.078;11.650;2023-05-03T09:25:41;102207.13;;;13.69;58.20
14612;BME280;7392;52.078;11.650;2023-05-03T09:28:09;102215.22;;;13.79;58.60
14612;BME280;7392;52.078;11.650;2023-05-03T09:30:37;102209.94;;;13.90;57.63
14612;BME280;7392;52.078;11.650;2023-05-03T09:33:04;102212.72;;;14.09;58.40
14612;BME280;7392;52.078;11.650;2023-05-03T09:35:33;102203.88;;;14.17;56.83
14612;BME280;7392;52.078;11.650;2023-05-03T09:38:01;102209.41;;;14.45;56.77
14612;BME280;7392;52.078;11.650;2023-05-03T09:40:30;102199.75;;;14.75;56.43
14612;BME280;7392;52.078;11.650;2023-05-03T09:43:07;102207.84;;;14.96;55.49
14612;BME280;7392;52.078;11.650;2023-05-03T09:45:36;102206.00;;;14.89;54.97
14612;BME280;7392;52.078;11.650;2023-05-03T09:48:05;102207.78;;;14.84;54.19
14612;BME280;7392;52.078;11.650;2023-05-03T09:50:35;102202.41;;;14.76;53.94
14612;BME280;7392;52.078;11.650;2023-05-03T09:53:05;102213.09;;;14.73;53.74
14612;BME280;7392;52.078;11.650;2023-05-03T09:55:36;102208.63;;;14.69;53.96
14612;BME280;7392;52.078;11.650;2023-05-03T09:58:05;102204.97;;;14.58;52.34
14612;BME280;7392;52.078;11.650;2023-05-03T10:00:35;102204.16;;;14.59;52.57
14612;BME280;7392;52.078;11.650;2023-05-03T10:03:07;102198.88;;;14.94;54.03
14612;BME280;7392;52.078;11.650;2023-05-03T10:05:41;102190.91;;;15.27;54.96
14612;BME280;7392;52.078;11.650;2023-05-03T10:08:11;102191.84;;;15.66;55.82
14612;BME280;7392;52.078;11.650;2023-05-03T10:10:43;102199.91;;;15.89;53.80
14612;BME280;7392;52.078;11.650;2023-05-03T10:13:12;102203.41;;;16.22;54.65
14612;BME280;7392;52.078;11.650;2023-05-03T10:15:40;102187.31;;;16.30;50.52
14612;BME280;7392;52.078;11.650;2023-05-03T10:18:12;102186.31;;;16.51;51.58
14612;BME280;7392;52.078;11.650;2023-05-03T10:20:45;102197.84;;;16.77;51.52
14612;BME280;7392;52.078;11.650;2023-05-03T10:23:17;102182.50;;;17.01;51.17
14612;BME280;7392;52.078;11.650;2023-05-03T10:26:13;102185.00;;;17.30;50.60
14612;BME280;7392;52.078;11.650;2023-05-03T10:28:41;102182.00;;;17.64;51.53
14612;BME280;7392;52.078;11.650;2023-05-03T10:31:42;102184.34;;;18.06;51.61
14612;BME280;7392;52.078;11.650;2023-05-03T10:34:20;102182.13;;;18.45;50.55
14612;BME280;7392;52.078;11.650;2023-05-03T10:36:50;102177.25;;;18.73;50.20
14612;BME280;7392;52.078;11.650;2023-05-03T10:39:19;102174.38;;;18.87;50.06
14612;BME280;7392;52.078;11.650;2023-05-03T10:41:58;102183.31;;;18.91;48.87
14612;BME280;7392;52.078;11.650;2023-05-03T10:44:32;102176.22;;;18.85;47.88
14612;BME280;7392;52.078;11.650;2023-05-03T10:47:09;102170.50;;;19.10;48.12
14612;BME280;7392;52.078;11.650;2023-05-03T10:49:37;102168.38;;;19.29;46.91
14612;BME280;7392;52.078;11.650;2023-05-03T10:52:48;102154.69;;;19.42;43.95
14612;BME280;7392;52.078;11.650;2023-05-03T10:55:17;102165.91;;;19.68;44.88
14612;BME280;7392;52.078;11.650;2023-05-03T10:57:47;102163.25;;;19.66;43.39
14612;BME280;7392;52.078;11.650;2023-05-03T11:00:18;102169.44;;;19.73;42.78
14612;BME280;7392;52.078;11.650;2023-05-03T11:05:46;102165.75;;;19.80;41.81
14612;BME280;7392;52.078;11.650;2023-05-03T11:08:17;102159.13;;;19.96;43.28
14612;BME280;7392;52.078;11.650;2023-05-03T11:10:47;102153.50;;;20.09;42.52
14612;BME280;7392;52.078;11.650;2023-05-03T11:13:14;102160.22;;;20.33;43.46
14612;BME280;7392;52.078;11.650;2023-05-03T11:15:42;102154.97;;;20.69;45.13
14612;BME280;7392;52.078;11.650;2023-05-03T11:18:13;102156.28;;;20.90;43.18
14612;BME280;7392;52.078;11.650;2023-05-03T11:20:41;102159.41;;;21.10;42.21
14612;BME280;7392;52.078;11.650;2023-05-03T11:23:11;102146.53;;;21.22;41.66
14612;BME280;7392;52.078;11.650;2023-05-03T11:25:40;102160.50;;;21.39;42.14
14612;BME280;7392;52.078;11.650;2023-05-03T11:28:08;102144.66;;;21.61;42.70
14612;BME280;7392;52.078;11.650;2023-05-03T11:30:35;102148.16;;;21.65;40.24
14612;BME280;7392;52.078;11.650;2023-05-03T11:33:04;102144.88;;;21.52;38.28
14612;BME280;7392;52.078;11.650;2023-05-03T11:35:32;102142.84;;;21.62;39.78
14612;BME280;7392;52.078;11.650;2023-05-03T11:38:00;102129.03;;;21.73;39.78
14612;BME280;7392;52.078;11.650;2023-05-03T11:40:28;102131.84;;;22.01;41.46
14612;BME280;7392;52.078;11.650;2023-05-03T11:42:58;102129.16;;;22.32;41.82
14612;BME280;7392;52.078;11.650;2023-05-03T11:45:29;102129.19;;;22.62;41.51
14612;BME280;7392;52.078;11.650;2023-05-03T11:47:58;102124.22;;;22.76;39.94
14612;BME280;7392;52.078;11.650;2023-05-03T11:50:41;102122.78;;;22.93;39.76
14612;BME280;7392;52.078;11.650;2023-05-03T11:53:09;102122.78;;;23.21;40.17
14612;BME280;7392;52.078;11.650;2023-05-03T11:55:38;102114.25;;;23.33;38.74
14612;BME280;7392;52.078;11.650;2023-05-03T11:58:11;102117.41;;;23.46;38.64
14612;BME280;7392;52.078;11.650;2023-05-03T12:00:42;102115.66;;;23.45;35.21
14612;BME280;7392;52.078;11.650;2023-05-03T12:03:15;102123.47;;;23.55;36.04
14612;BME280;7392;52.078;11.650;2023-05-03T12:05:44;102117.41;;;23.46;35.21
14612;BME280;7392;52.078;11.650;2023-05-03T12:08:14;102127.22;;;23.50;35.67
14612;BME280;7392;52.078;11.650;2023-05-03T12:10:47;102128.09;;;23.51;34.58
14612;BME280;7392;52.078;11.650;2023-05-03T12:13:27;102117.44;;;23.20;34.10
14612;BME280;7392;52.078;11.650;2023-05-03T12:15:58;102111.91;;;23.23;34.46
14612;BME280;7392;52.078;11.650;2023-05-03T12:18:45;102110.91;;;23.25;34.64
14612;BME280;7392;52.078;11.650;2023-05-03T12:21:16;102103.91;;;23.20;34.33
14612;BME280;7392;52.078;11.650;2023-05-03T12:23:47;102107.84;;;23.36;34.94
14612;BME280;7392;52.078;11.650;2023-05-03T12:26:16;102106.81;;;23.40;32.99
14612;BME280;7392;52.078;11.650;2023-05-03T12:28:48;102103.41;;;23.33;32.69
14612;BME280;7392;52.078;11.650;2023-05-03T12:31:16;102093.44;;;23.34;33.76
14612;BME280;7392;52.078;11.650;2023-05-03T12:33:44;102093.41;;;23.36;34.08
14612;BME280;7392;52.078;11.650;2023-05-03T12:36:32;102091.91;;;23.52;34.40
14612;BME280;7392;52.078;11.650;2023-05-03T12:39:03;102097.03;;;23.61;34.40
14612;BME280;7392;52.078;11.650;2023-05-03T12:41:35;102097.28;;;23.53;32.05
14612;BME280;7392;52.078;11.650;2023-05-03T12:44:07;102092.56;;;23.59;33.27
14612;BME280;7392;52.078;11.650;2023-05-03T12:46:36;102089.78;;;23.87;35.16
14612;BME280;7392;52.078;11.650;2023-05-03T12:49:04;102088.19;;;24.05;34.83
14612;BME280;7392;52.078;11.650;2023-05-03T12:51:34;102088.97;;;24.32;35.47
14612;BME280;7392;52.078;11.650;2023-05-03T12:54:07;102086.78;;;24.42;34.09
14612;BME280;7392;52.078;11.650;2023-05-03T12:56:37;102082.31;;;24.41;33.45
14612;BME280;7392;52.078;11.650;2023-05-03T12:59:08;102082.19;;;24.44;32.99
14612;BME280;7392;52.078;11.650;2023-05-03T13:01:57;102089.75;;;23.88;29.20
14612;BME280;7392;52.078;11.650;2023-05-03T13:04:27;102082.13;;;23.48;27.87
14612;BME280;7392;52.078;11.650;2023-05-03T13:06:58;102087.09;;;23.35;28.38
14612;BME280;7392;52.078;11.650;2023-05-03T13:09:27;102074.28;;;23.13;28.90
14612;BME280;7392;52.078;11.650;2023-05-03T13:12:15;102074.59;;;23.31;30.61
14612;BME280;7392;52.078;11.650;2023-05-03T13:14:47;102069.03;;;23.61;32.63
14612;BME280;7392;52.078;11.650;2023-05-03T13:17:15;102072.66;;;23.86;32.42